Time;durP1;ratioP1;P1;durP2;ratioP2;P2;SDS_P1;SDS_P2;PMS_P1;PMS_P2;Temp;Humidity;BMP_temperature;BMP_pressure;BME280_temperature;BME280_humidity;BME280_pressure;Samples;Min_cycle;Max_cycle;Signal;HPM_P1;HPM_P2
2023/06/24 00:01:24;;;;;;;;;;;18.30;99.90;;;;;;5090612;28;19913;-59
2023/06/24 00:03:52;;;;;;;;;;;18.30;99.90;;;;;;5092213;28;19912;-59
2023/06/24 00:06:22;;;;;;;;;;;18.30;99.90;;;;;;5085361;28;19916;-59
2023/06/24 00:08:48;;;;;;;;;;;18.30;99.90;;;;;;5090743;28;19944;-59
2023/06/24 00:11:14;;;;;;;;;;;18.20;99.90;;;;;;5096975;28;19912;-59
2023/06/24 00:13:40;;;;;;;;;;;18.20;99.90;;;;;;5086050;28;19927;-59
2023/06/24 00:16:08;;;;;;;;;;;18.10;99.90;;;;;;5095605;28;20394;-59
2023/06/24 00:18:35;;;;;;;;;;;18.10;99.90;;;;;;5090571;28;20386;-59
2023/06/24 00:21:04;;;;;;;;;;;18.10;99.90;;;;;;5093303;28;19916;-59
2023/06/24 00:23:34;;;;;;;;;;;18.00;99.90;;;;;;5092359;28;19915;-59
2023/06/24 00:26:00;;;;;;;;;;;18.00;99.90;;;;;;5089279;28;19917;-59
2023/06/24 00:28:25;;;;;;;;;;;18.00;99.90;;;;;;5084351;28;19962;-59
2023/06/24 00:30:51;;;;;;;;;;;17.90;99.90;;;;;;5082731;28;19912;-59
2023/06/24 00:33:19;;;;;;;;;;;17.90;99.90;;;;;;5080289;28;20335;-59
2023/06/24 00:35:45;;;;;;;;;;;17.90;99.90;;;;;;5092501;28;19924;-59
2023/06/24 00:38:10;;;;;;;;;;;17.90;99.90;;;;;;5097904;28;20387;-59
2023/06/24 00:40:36;;;;;;;;;;;17.90;99.90;;;;;;5099342;28;19923;-59
2023/06/24 00:43:02;;;;;;;;;;;17.80;99.90;;;;;;5098758;28;19919;-59
2023/06/24 00:45:30;;;;;;;;;;;17.80;99.90;;;;;;5098778;28;19912;-59
2023/06/24 00:47:56;;;;;;;;;;;17.80;99.90;;;;;;5100035;28;19915;-59
2023/06/24 00:50:21;;;;;;;;;;;17.80;99.90;;;;;;5078717;28;19915;-59
2023/06/24 00:52:48;;;;;;;;;;;17.80;99.90;;;;;;5079915;28;19991;-59
2023/06/24 00:55:14;;;;;;;;;;;17.70;99.90;;;;;;5083248;28;20256;-59
2023/06/24 00:57:41;;;;;;;;;;;17.70;99.90;;;;;;5097995;28;19912;-59
2023/06/24 01:00:14;;;;;;;;;;;17.70;99.90;;;;;;5086583;28;20015;-59
2023/06/24 01:02:42;;;;;;;;;;;17.70;99.90;;;;;;5081441;28;19919;-59
2023/06/24 01:05:08;;;;;;;;;;;17.70;99.90;;;;;;5090835;28;19941;-59
2023/06/24 01:07:35;;;;;;;;;;;17.60;99.90;;;;;;5081913;28;20389;-59
2023/06/24 01:10:02;;;;;;;;;;;17.60;99.90;;;;;;5086734;28;19913;-59
2023/06/24 01:12:28;;;;;;;;;;;17.60;99.90;;;;;;5092368;28;19913;-59
2023/06/24 01:14:54;;;;;;;;;;;17.50;99.90;;;;;;5081236;28;19958;-59
2023/06/24 01:17:23;;;;;;;;;;;17.50;99.90;;;;;;5096513;28;19916;-59
2023/06/24 01:19:58;;;;;;;;;;;17.40;99.90;;;;;;5097714;28;19916;-59
2023/06/24 01:22:26;;;;;;;;;;;17.50;99.90;;;;;;5085655;28;19962;-59
2023/06/24 01:25:07;;;;;;;;;;;17.40;99.90;;;;;;5084748;28;19916;-59
2023/06/24 01:27:54;;;;;;;;;;;17.40;99.90;;;;;;5078967;28;20398;-59
2023/06/24 01:30:35;;;;;;;;;;;17.40;99.90;;;;;;5080563;28;19929;-59
2023/06/24 01:33:05;;;;;;;;;;;17.30;99.90;;;;;;5099501;28;19908;-59
2023/06/24 01:35:35;;;;;;;;;;;17.30;99.90;;;;;;5099822;28;19998;-59
2023/06/24 01:38:03;;;;;;;;;;;17.30;99.90;;;;;;5099253;28;19987;-59
2023/06/24 01:40:40;;;;;;;;;;;17.30;99.90;;;;;;5089655;28;19958;-59
2023/06/24 01:43:08;;;;;;;;;;;17.30;99.90;;;;;;5080245;28;20306;-59
2023/06/24 01:45:37;;;;;;;;;;;17.20;99.90;;;;;;5094864;28;19912;-59
2023/06/24 01:48:06;;;;;;;;;;;17.20;99.90;;;;;;5096884;28;19919;-59
2023/06/24 01:50:33;;;;;;;;;;;17.20;99.90;;;;;;5087146;28;19912;-59
2023/06/24 01:52:59;;;;;;;;;;;17.20;99.90;;;;;;5089864;28;19908;-59
2023/06/24 01:55:26;;;;;;;;;;;17.10;99.90;;;;;;5082826;28;20006;-59
2023/06/24 01:57:52;;;;;;;;;;;17.10;99.90;;;;;;5086603;28;19913;-59
2023/06/24 02:00:18;;;;;;;;;;;17.10;99.90;;;;;;5098866;28;19908;-59
2023/06/24 02:02:45;;;;;;;;;;;17.10;99.90;;;;;;5094097;28;19941;-59
2023/06/24 02:05:11;;;;;;;;;;;17.10;99.90;;;;;;5086957;28;19912;-59
2023/06/24 02:07:38;;;;;;;;;;;17.00;99.90;;;;;;5087946;28;19985;-59
2023/06/24 02:10:04;;;;;;;;;;;17.00;99.90;;;;;;5095304;28;20438;-59
2023/06/24 02:12:29;;;;;;;;;;;17.00;99.90;;;;;;5090177;28;19944;-59
2023/06/24 02:14:56;;;;;;;;;;;16.90;99.90;;;;;;5089266;28;19958;-59
2023/06/24 02:17:24;;;;;;;;;;;16.90;99.90;;;;;;5098396;28;19913;-59
2023/06/24 02:19:50;;;;;;;;;;;16.90;99.90;;;;;;5092427;28;19943;-59
2023/06/24 02:22:17;;;;;;;;;;;16.90;99.90;;;;;;5098885;28;19912;-58
2023/06/24 02:24:42;;;;;;;;;;;16.90;99.90;;;;;;5095393;28;19912;-59
2023/06/24 02:27:08;;;;;;;;;;;16.90;99.90;;;;;;5079602;28;19924;-59
2023/06/24 02:29:35;;;;;;;;;;;16.80;99.90;;;;;;5094913;28;20056;-58
2023/06/24 02:32:01;;;;;;;;;;;16.80;99.90;;;;;;5092826;28;20050;-59
2023/06/24 02:34:28;;;;;;;;;;;16.80;99.90;;;;;;5083097;28;19913;-59
2023/06/24 02:36:53;;;;;;;;;;;16.80;99.90;;;;;;5094226;28;19908;-59
2023/06/24 02:39:19;;;;;;;;;;;16.80;99.90;;;;;;5090055;28;20452;-59
2023/06/24 02:41:47;;;;;;;;;;;16.70;99.90;;;;;;5077753;28;19924;-59
2023/06/24 02:44:13;;;;;;;;;;;16.70;99.90;;;;;;5083174;28;19912;-59
2023/06/24 02:46:40;;;;;;;;;;;16.70;99.90;;;;;;5090924;28;20382;-59
2023/06/24 02:49:05;;;;;;;;;;;16.70;99.90;;;;;;5079674;28;20855;-59
2023/06/24 02:51:32;;;;;;;;;;;16.60;99.90;;;;;;5096636;28;19999;-59
2023/06/24 02:53:58;;;;;;;;;;;16.60;99.90;;;;;;5096242;28;19909;-59
2023/06/24 02:56:24;;;;;;;;;;;16.60;99.90;;;;;;5084373;28;19919;-59
2023/06/24 02:58:52;;;;;;;;;;;16.60;99.90;;;;;;5089612;28;19912;-59
2023/06/24 03:01:18;;;;;;;;;;;16.50;99.90;;;;;;5078833;28;19966;-59
2023/06/24 03:03:49;;;;;;;;;;;16.50;99.90;;;;;;5097954;28;20324;-59
2023/06/24 03:06:17;;;;;;;;;;;16.50;99.90;;;;;;5097754;28;20507;-59
2023/06/24 03:08:43;;;;;;;;;;;16.50;99.90;;;;;;5080981;28;19920;-59
2023/06/24 03:11:12;;;;;;;;;;;16.50;99.90;;;;;;5090789;28;19908;-59
2023/06/24 03:13:37;;;;;;;;;;;16.40;99.90;;;;;;5096275;28;19912;-59
2023/06/24 03:16:03;;;;;;;;;;;16.40;99.90;;;;;;5087565;28;19915;-59
2023/06/24 03:18:28;;;;;;;;;;;16.40;99.90;;;;;;5077299;28;19939;-59
2023/06/24 03:20:54;;;;;;;;;;;16.40;99.90;;;;;;5077504;28;20414;-59
2023/06/24 03:23:20;;;;;;;;;;;16.40;99.90;;;;;;5077698;28;19909;-59
2023/06/24 03:25:45;;;;;;;;;;;16.40;99.90;;;;;;5091124;28;19912;-59
2023/06/24 03:28:11;;;;;;;;;;;16.30;99.90;;;;;;5090949;28;20351;-59
2023/06/24 03:30:37;;;;;;;;;;;16.40;99.90;;;;;;5082476;28;20371;-59
2023/06/24 03:33:02;;;;;;;;;;;16.40;99.90;;;;;;5081571;28;19909;-59
2023/06/24 03:35:29;;;;;;;;;;;16.40;99.90;;;;;;5080609;28;19920;-59
2023/06/24 03:37:55;;;;;;;;;;;16.40;99.90;;;;;;5093823;28;19926;-59
2023/06/24 03:40:20;;;;;;;;;;;16.30;99.90;;;;;;5091937;28;20290;-59
2023/06/24 03:42:46;;;;;;;;;;;16.30;99.90;;;;;;5098745;28;19915;-59
2023/06/24 03:45:12;;;;;;;;;;;16.30;99.90;;;;;;5091483;28;20299;-59
2023/06/24 03:47:38;;;;;;;;;;;16.30;99.90;;;;;;5089321;28;19916;-59
2023/06/24 03:50:04;;;;;;;;;;;16.30;99.90;;;;;;5090267;28;19913;-59
2023/06/24 03:52:30;;;;;;;;;;;16.30;99.90;;;;;;5089807;28;20386;-59
2023/06/24 03:54:55;;;;;;;;;;;16.30;99.90;;;;;;5090766;28;20060;-59
2023/06/24 03:57:22;;;;;;;;;;;16.20;99.90;;;;;;5089325;28;19912;-59
2023/06/24 03:59:47;;;;;;;;;;;16.20;99.90;;;;;;5100293;28;19919;-59
2023/06/24 04:02:21;;;;;;;;;;;16.20;99.90;;;;;;5086404;28;19924;-59
2023/06/24 04:04:51;;;;;;;;;;;16.20;99.90;;;;;;5087159;28;19912;-59
2023/06/24 04:07:27;;;;;;;;;;;16.20;99.90;;;;;;5085924;28;19912;-59
2023/06/24 04:09:56;;;;;;;;;;;16.20;99.90;;;;;;5091490;28;20018;-59
2023/06/24 04:12:22;;;;;;;;;;;16.20;99.90;;;;;;5080912;28;19912;-59
2023/06/24 04:14:47;;;;;;;;;;;16.20;99.90;;;;;;5090165;28;19912;-59
2023/06/24 04:17:13;;;;;;;;;;;16.20;99.90;;;;;;5088081;28;19921;-59
2023/06/24 04:19:39;;;;;;;;;;;16.20;99.90;;;;;;5100488;28;19958;-59
2023/06/24 04:22:05;;;;;;;;;;;16.10;99.90;;;;;;5092758;28;19918;-59
2023/06/24 04:24:31;;;;;;;;;;;16.10;99.90;;;;;;5080086;28;19913;-59
2023/06/24 04:26:57;;;;;;;;;;;16.10;99.90;;;;;;5089811;28;19916;-59
2023/06/24 04:29:23;;;;;;;;;;;16.10;99.90;;;;;;5079964;28;19913;-59
2023/06/24 04:31:48;;;;;;;;;;;16.10;99.90;;;;;;5088791;28;20405;-59
2023/06/24 04:34:14;;;;;;;;;;;16.20;99.90;;;;;;5087867;28;20358;-59
2023/06/24 04:36:40;;;;;;;;;;;16.20;99.90;;;;;;5081122;28;20303;-59
2023/06/24 04:39:05;;;;;;;;;;;16.10;99.90;;;;;;5084188;28;19996;-59
2023/06/24 04:41:32;;;;;;;;;;;16.20;99.90;;;;;;5080077;28;19956;-59
2023/06/24 04:43:57;;;;;;;;;;;16.20;99.90;;;;;;5089676;28;20462;-59
2023/06/24 04:46:23;;;;;;;;;;;16.20;99.90;;;;;;5092224;28;19956;-59
2023/06/24 04:48:49;;;;;;;;;;;16.20;99.90;;;;;;5089231;28;19912;-59
2023/06/24 04:51:14;;;;;;;;;;;16.20;99.90;;;;;;5085004;28;20390;-59
2023/06/24 04:53:40;;;;;;;;;;;16.20;99.90;;;;;;5081456;28;19962;-59
2023/06/24 04:56:06;;;;;;;;;;;16.20;99.90;;;;;;5094161;28;20441;-59
2023/06/24 04:58:31;;;;;;;;;;;16.20;99.90;;;;;;5100004;28;20288;-59
2023/06/24 05:00:57;;;;;;;;;;;16.20;99.90;;;;;;5098047;28;19909;-59
2023/06/24 05:03:23;;;;;;;;;;;16.20;99.90;;;;;;5091336;28;19912;-59
2023/06/24 05:05:48;;;;;;;;;;;16.30;99.90;;;;;;5099892;28;19909;-59
2023/06/24 05:08:14;;;;;;;;;;;16.30;99.90;;;;;;5094730;28;19952;-59
2023/06/24 05:10:39;;;;;;;;;;;16.30;99.90;;;;;;5079618;28;20018;-59
2023/06/24 05:13:05;;;;;;;;;;;16.30;99.90;;;;;;5086168;28;19916;-59
2023/06/24 05:15:31;;;;;;;;;;;16.30;99.90;;;;;;5094448;28;19920;-59
2023/06/24 05:17:56;;;;;;;;;;;16.40;99.90;;;;;;5081169;28;19913;-59
2023/06/24 05:20:22;;;;;;;;;;;16.40;99.90;;;;;;5079814;28;19908;-59
2023/06/24 05:22:48;;;;;;;;;;;16.40;99.90;;;;;;5080608;28;20803;-59
2023/06/24 05:25:14;;;;;;;;;;;16.50;99.90;;;;;;5092523;28;19916;-59
2023/06/24 05:27:39;;;;;;;;;;;16.50;99.90;;;;;;5080306;28;19917;-59
2023/06/24 05:30:05;;;;;;;;;;;16.70;99.90;;;;;;5081444;28;19916;-59
2023/06/24 05:32:31;;;;;;;;;;;16.60;99.90;;;;;;5090752;28;19965;-59
2023/06/24 05:34:57;;;;;;;;;;;16.60;99.90;;;;;;5081368;28;19919;-59
2023/06/24 05:37:22;;;;;;;;;;;16.70;99.90;;;;;;5077127;28;19954;-59
2023/06/24 05:39:48;;;;;;;;;;;16.70;99.90;;;;;;5079456;28;19936;-59
2023/06/24 05:42:14;;;;;;;;;;;16.70;99.90;;;;;;5095105;28;19923;-59
2023/06/24 05:44:39;;;;;;;;;;;16.80;99.90;;;;;;5096438;28;20408;-59
2023/06/24 05:47:05;;;;;;;;;;;16.90;99.90;;;;;;5089608;28;19966;-59
2023/06/24 05:49:31;;;;;;;;;;;16.90;99.90;;;;;;5079730;28;19908;-59
2023/06/24 05:51:57;;;;;;;;;;;16.90;99.90;;;;;;5077262;28;20336;-59
2023/06/24 05:54:23;;;;;;;;;;;17.00;99.90;;;;;;5095075;28;19908;-59
2023/06/24 05:56:49;;;;;;;;;;;17.00;99.90;;;;;;5097906;28;20344;-59
2023/06/24 05:59:14;;;;;;;;;;;17.10;99.90;;;;;;5077854;28;19957;-59
2023/06/24 06:01:40;;;;;;;;;;;17.20;99.90;;;;;;5078073;28;19919;-59
2023/06/24 06:04:06;;;;;;;;;;;17.20;99.90;;;;;;5091207;28;19919;-59
2023/06/24 06:06:31;;;;;;;;;;;17.20;99.90;;;;;;5087128;28;19970;-59
2023/06/24 06:08:57;;;;;;;;;;;17.30;99.90;;;;;;5083418;28;19917;-59
2023/06/24 06:11:23;;;;;;;;;;;17.40;99.90;;;;;;5084641;28;20364;-59
2023/06/24 06:13:49;;;;;;;;;;;17.50;99.90;;;;;;5077902;28;19934;-59
2023/06/24 06:16:14;;;;;;;;;;;17.60;99.90;;;;;;5078144;28;20388;-59
2023/06/24 06:18:40;;;;;;;;;;;17.60;99.90;;;;;;5085006;28;19929;-59
2023/06/24 06:21:06;;;;;;;;;;;17.70;99.90;;;;;;5079495;28;19920;-59
2023/06/24 06:23:31;;;;;;;;;;;17.80;99.90;;;;;;5093046;28;19908;-59
2023/06/24 06:25:57;;;;;;;;;;;17.80;99.90;;;;;;5097852;28;19916;-59
2023/06/24 06:28:22;;;;;;;;;;;17.90;99.90;;;;;;5089185;28;19912;-59
2023/06/24 06:30:48;;;;;;;;;;;18.00;99.90;;;;;;5077813;28;19916;-59
2023/06/24 06:33:14;;;;;;;;;;;18.10;99.90;;;;;;5078093;28;20324;-59
2023/06/24 06:35:39;;;;;;;;;;;18.10;99.90;;;;;;5078051;28;19915;-59
2023/06/24 06:38:05;;;;;;;;;;;18.20;99.90;;;;;;5077483;28;20026;-59
2023/06/24 06:40:30;;;;;;;;;;;18.30;99.90;;;;;;5077973;28;20327;-59
2023/06/24 06:42:56;;;;;;;;;;;18.40;99.90;;;;;;5077750;28;19997;-59
2023/06/24 06:45:22;;;;;;;;;;;18.40;99.90;;;;;;5078186;28;19915;-59
2023/06/24 06:47:49;;;;;;;;;;;18.50;99.90;;;;;;5093644;28;19916;-59
2023/06/24 06:50:14;;;;;;;;;;;18.60;99.90;;;;;;5098009;28;20309;-59
2023/06/24 06:52:40;;;;;;;;;;;18.70;99.90;;;;;;5097660;28;19912;-59
2023/06/24 06:55:05;;;;;;;;;;;18.80;99.90;;;;;;5098204;28;19931;-59
2023/06/24 06:57:31;;;;;;;;;;;18.90;99.90;;;;;;5098328;28;20393;-59
2023/06/24 06:59:57;;;;;;;;;;;18.90;99.90;;;;;;5097382;28;19915;-59
2023/06/24 07:02:23;;;;;;;;;;;19.00;99.90;;;;;;5097942;28;19958;-59
2023/06/24 07:04:50;;;;;;;;;;;19.10;99.90;;;;;;5097859;28;19908;-59
2023/06/24 07:07:16;;;;;;;;;;;19.10;99.90;;;;;;5097778;28;19966;-59
2023/06/24 07:09:41;;;;;;;;;;;19.20;99.90;;;;;;5097306;28;19908;-59
2023/06/24 07:12:07;;;;;;;;;;;19.30;99.90;;;;;;5098231;28;19922;-59
2023/06/24 07:14:33;;;;;;;;;;;19.40;99.90;;;;;;5097922;28;20263;-59
2023/06/24 07:16:58;;;;;;;;;;;19.50;99.90;;;;;;5097968;28;20371;-59
2023/06/24 07:19:24;;;;;;;;;;;19.50;99.90;;;;;;5097602;28;19908;-59
2023/06/24 07:21:51;;;;;;;;;;;19.60;99.90;;;;;;5097711;28;19908;-59
2023/06/24 07:24:17;;;;;;;;;;;19.70;99.90;;;;;;5096961;28;19948;-59
2023/06/24 07:26:43;;;;;;;;;;;19.80;99.90;;;;;;5097344;28;19930;-59
2023/06/24 07:29:09;;;;;;;;;;;19.90;99.90;;;;;;5097636;28;19912;-59
2023/06/24 07:31:35;;;;;;;;;;;20.00;99.90;;;;;;5097789;28;19915;-59
2023/06/24 07:34:01;;;;;;;;;;;20.10;99.90;;;;;;5097757;28;19931;-59
2023/06/24 07:36:26;;;;;;;;;;;20.10;99.90;;;;;;5097732;28;19908;-59
2023/06/24 07:38:52;;;;;;;;;;;20.30;99.90;;;;;;5097745;28;19908;-59
2023/06/24 07:41:17;;;;;;;;;;;20.30;99.90;;;;;;5097250;28;19998;-59
2023/06/24 07:43:43;;;;;;;;;;;20.40;99.90;;;;;;5097497;28;19974;-59
2023/06/24 07:46:09;;;;;;;;;;;20.50;99.90;;;;;;5097449;28;19965;-59
2023/06/24 07:48:34;;;;;;;;;;;20.60;99.90;;;;;;5097690;28;19923;-59
2023/06/24 07:51:00;;;;;;;;;;;20.70;99.90;;;;;;5097587;28;19995;-59
2023/06/24 07:53:26;;;;;;;;;;;20.70;99.90;;;;;;5097456;28;19908;-59
2023/06/24 07:55:51;;;;;;;;;;;20.80;99.90;;;;;;5097163;28;20371;-59
2023/06/24 07:58:19;;;;;;;;;;;20.90;99.90;;;;;;5097395;28;19983;-60
2023/06/24 08:00:44;;;;;;;;;;;21.00;99.90;;;;;;5097518;28;19915;-60
2023/06/24 08:03:10;;;;;;;;;;;21.10;99.90;;;;;;5097753;28;20403;-59
2023/06/24 08:05:37;;;;;;;;;;;21.20;99.90;;;;;;5097147;28;19908;-59
2023/06/24 08:08:02;;;;;;;;;;;21.30;99.90;;;;;;5096879;28;20379;-59
2023/06/24 08:10:28;;;;;;;;;;;21.40;99.90;;;;;;5097048;28;19951;-59
2023/06/24 08:12:53;;;;;;;;;;;21.50;99.90;;;;;;5098991;28;19962;-59
2023/06/24 08:15:19;;;;;;;;;;;21.60;99.90;;;;;;5100897;28;20267;-59
2023/06/24 08:17:50;;;;;;;;;;;21.70;99.90;;;;;;5101087;28;19912;-59
2023/06/24 08:20:15;;;;;;;;;;;21.80;99.90;;;;;;5100783;28;19908;-59
2023/06/24 08:22:41;;;;;;;;;;;21.80;99.90;;;;;;5100676;28;20476;-59
2023/06/24 08:25:07;;;;;;;;;;;21.90;99.90;;;;;;5100831;28;19914;-59
2023/06/24 08:27:33;;;;;;;;;;;22.00;99.90;;;;;;5100585;28;20007;-59
2023/06/24 08:29:58;;;;;;;;;;;22.00;99.90;;;;;;5100291;28;19951;-59
2023/06/24 08:32:24;;;;;;;;;;;22.20;99.90;;;;;;5100545;28;19908;-59
2023/06/24 08:34:50;;;;;;;;;;;22.20;99.90;;;;;;5100830;28;19908;-59
2023/06/24 08:37:15;;;;;;;;;;;22.30;99.90;;;;;;5100420;28;19908;-59
2023/06/24 08:39:41;;;;;;;;;;;22.40;99.90;;;;;;5100600;28;19915;-60
2023/06/24 08:42:07;;;;;;;;;;;22.50;99.90;;;;;;5100325;28;19912;-59
2023/06/24 08:44:32;;;;;;;;;;;22.60;99.90;;;;;;5100630;28;19908;-59
2023/06/24 08:46:58;;;;;;;;;;;22.70;99.90;;;;;;5100695;28;20252;-59
2023/06/24 08:49:23;;;;;;;;;;;22.70;99.90;;;;;;5100438;28;19961;-59
2023/06/24 08:51:56;;;;;;;;;;;22.80;99.90;;;;;;5100513;28;19909;-59
2023/06/24 08:54:22;;;;;;;;;;;22.80;99.90;;;;;;5100164;28;19916;-59
2023/06/24 08:56:48;;;;;;;;;;;22.90;99.90;;;;;;5100041;28;19950;-59
2023/06/24 08:59:19;;;;;;;;;;;23.00;99.90;;;;;;5100153;28;19912;-59
2023/06/24 09:01:45;;;;;;;;;;;23.00;99.90;;;;;;5099739;28;20310;-59
2023/06/24 09:04:11;;;;;;;;;;;23.10;99.50;;;;;;5100196;28;20360;-59
2023/06/24 09:06:36;;;;;;;;;;;23.20;96.90;;;;;;5099133;28;20052;-59
2023/06/24 09:09:02;;;;;;;;;;;23.30;96.60;;;;;;5099814;28;19908;-59
2023/06/24 09:11:28;;;;;;;;;;;23.30;95.50;;;;;;5099772;28;19919;-60
2023/06/24 09:13:55;;;;;;;;;;;23.40;94.50;;;;;;5100165;28;19908;-59
2023/06/24 09:16:21;;;;;;;;;;;23.40;94.80;;;;;;5099852;28;19940;-59
2023/06/24 09:18:50;;;;;;;;;;;23.50;98.30;;;;;;5100220;28;20270;-60
2023/06/24 09:21:25;;;;;;;;;;;23.50;92.00;;;;;;5099637;28;19975;-60
2023/06/24 09:23:52;;;;;;;;;;;23.50;96.30;;;;;;5099238;28;19944;-59
2023/06/24 09:26:18;;;;;;;;;;;23.60;96.60;;;;;;5099587;28;19912;-59
2023/06/24 09:28:47;;;;;;;;;;;23.60;96.00;;;;;;5099547;28;19957;-59
2023/06/24 09:31:12;;;;;;;;;;;23.70;94.80;;;;;;5099579;28;19953;-59
2023/06/24 09:33:39;;;;;;;;;;;23.80;92.90;;;;;;5099157;28;20010;-60
2023/06/24 09:36:05;;;;;;;;;;;23.90;99.30;;;;;;5099179;28;19912;-59
2023/06/24 09:38:38;;;;;;;;;;;24.00;99.80;;;;;;5099203;28;19915;-59
2023/06/24 09:41:04;;;;;;;;;;;24.10;97.40;;;;;;5099016;28;19927;-59
2023/06/24 09:43:30;;;;;;;;;;;24.20;96.10;;;;;;5099319;28;19915;-59
2023/06/24 09:45:57;;;;;;;;;;;24.30;91.40;;;;;;5099201;28;19951;-59
2023/06/24 09:48:22;;;;;;;;;;;24.40;89.50;;;;;;5099050;28;19908;-59
2023/06/24 09:50:48;;;;;;;;;;;24.50;90.20;;;;;;5097503;28;20393;-60
2023/06/24 09:53:14;;;;;;;;;;;24.70;97.10;;;;;;5098800;28;19990;-59
2023/06/24 09:55:43;;;;;;;;;;;24.90;98.20;;;;;;5099333;28;19908;-59
2023/06/24 09:58:10;;;;;;;;;;;25.10;93.00;;;;;;5099736;28;19908;-59
2023/06/24 10:00:36;;;;;;;;;;;25.20;84.00;;;;;;5098744;28;19912;-60
2023/06/24 10:03:02;;;;;;;;;;;25.30;94.30;;;;;;5098690;28;19908;-59
2023/06/24 10:05:28;;;;;;;;;;;25.50;83.30;;;;;;5099099;28;19915;-59
2023/06/24 10:07:53;;;;;;;;;;;25.70;87.90;;;;;;5098763;28;19938;-59
2023/06/24 10:10:19;;;;;;;;;;;25.80;81.50;;;;;;5098755;28;19994;-60
2023/06/24 10:12:45;;;;;;;;;;;25.90;76.30;;;;;;5098578;28;19908;-60
2023/06/24 10:15:11;;;;;;;;;;;26.30;84.50;;;;;;5098696;28;19908;-60
2023/06/24 10:17:37;;;;;;;;;;;26.60;90.50;;;;;;5098613;28;19908;-60
2023/06/24 10:20:08;;;;;;;;;;;27.40;90.80;;;;;;5098711;28;19915;-60
2023/06/24 10:22:36;;;;;;;;;;;28.10;77.80;;;;;;5098299;28;19915;-60
2023/06/24 10:25:02;;;;;;;;;;;28.80;88.60;;;;;;5098169;28;20393;-60
2023/06/24 10:27:32;;;;;;;;;;;29.40;68.00;;;;;;5098254;28;20283;-60
2023/06/24 10:30:01;;;;;;;;;;;30.40;75.30;;;;;;5098450;28;19908;-60
2023/06/24 10:32:39;;;;;;;;;;;30.60;64.20;;;;;;5098669;28;20355;-60
2023/06/24 10:35:05;;;;;;;;;;;31.60;74.30;;;;;;5097879;28;19952;-60
2023/06/24 10:37:31;;;;;;;;;;;32.00;60.80;;;;;;5098199;28;19916;-60
2023/06/24 10:39:58;;;;;;;;;;;32.10;61.10;;;;;;5097972;28;19915;-61
2023/06/24 10:42:31;;;;;;;;;;;32.20;54.30;;;;;;5096734;28;19908;-60
2023/06/24 10:44:58;;;;;;;;;;;32.30;55.40;;;;;;5098344;28;19915;-60
2023/06/24 10:47:24;;;;;;;;;;;32.50;52.90;;;;;;5098499;28;19965;-60
2023/06/24 10:49:49;;;;;;;;;;;32.80;55.80;;;;;;5098010;28;19909;-61
2023/06/24 10:52:17;;;;;;;;;;;33.30;45.70;;;;;;5096591;28;19912;-61
2023/06/24 10:54:43;;;;;;;;;;;33.70;53.90;;;;;;5097957;28;20325;-61
2023/06/24 10:57:10;;;;;;;;;;;34.00;47.80;;;;;;5098219;28;19908;-61
2023/06/24 10:59:43;;;;;;;;;;;34.30;44.10;;;;;;5097853;28;19934;-61
2023/06/24 11:02:11;;;;;;;;;;;34.10;43.90;;;;;;5098376;28;20348;-61
2023/06/24 11:04:47;;;;;;;;;;;34.30;43.00;;;;;;5097965;28;19916;-61
2023/06/24 11:07:13;;;;;;;;;;;34.70;45.60;;;;;;5097801;28;19920;-61
2023/06/24 11:09:40;;;;;;;;;;;35.00;40.00;;;;;;5098139;28;19908;-61
2023/06/24 11:12:08;;;;;;;;;;;34.40;39.50;;;;;;5097793;28;20469;-61
2023/06/24 11:14:34;;;;;;;;;;;35.10;42.90;;;;;;5097611;28;19908;-61
2023/06/24 11:17:01;;;;;;;;;;;35.40;38.60;;;;;;5097770;28;20263;-61
2023/06/24 11:19:27;;;;;;;;;;;35.10;38.10;;;;;;5097992;28;19915;-61
2023/06/24 11:21:52;;;;;;;;;;;35.10;39.30;;;;;;5098014;28;19908;-61
2023/06/24 11:24:18;;;;;;;;;;;35.00;37.40;;;;;;5097681;28;19916;-61
2023/06/24 11:26:45;;;;;;;;;;;34.70;37.20;;;;;;5097598;28;20362;-61
2023/06/24 11:29:11;;;;;;;;;;;34.40;37.60;;;;;;5098036;28;19912;-61
2023/06/24 11:31:37;;;;;;;;;;;35.00;38.60;;;;;;5097555;28;20007;-61
2023/06/24 11:34:03;;;;;;;;;;;35.60;39.60;;;;;;5097753;28;19908;-61
2023/06/24 11:36:29;;;;;;;;;;;35.90;37.20;;;;;;5097765;28;19908;-62
2023/06/24 11:38:54;;;;;;;;;;;36.20;38.00;;;;;;5097388;28;19908;-61
2023/06/24 11:41:21;;;;;;;;;;;35.80;37.50;;;;;;5097202;28;19977;-61
2023/06/24 11:43:47;;;;;;;;;;;35.70;37.30;;;;;;5097224;28;20283;-61
2023/06/24 11:46:26;;;;;;;;;;;36.30;38.50;;;;;;5098174;28;19912;-61
2023/06/24 11:48:51;;;;;;;;;;;36.60;36.30;;;;;;5101227;28;20295;-61
2023/06/24 11:51:17;;;;;;;;;;;36.90;37.60;;;;;;5101318;28;19915;-61
2023/06/24 11:53:46;;;;;;;;;;;37.50;37.10;;;;;;5101141;28;19908;-61
2023/06/24 11:56:12;;;;;;;;;;;37.10;35.00;;;;;;5101300;28;19908;-61
2023/06/24 11:58:38;;;;;;;;;;;37.10;37.60;;;;;;5101313;28;20286;-61
2023/06/24 12:01:06;;;;;;;;;;;37.50;36.70;;;;;;5101026;28;19951;-61
2023/06/24 12:03:33;;;;;;;;;;;37.40;36.70;;;;;;5101250;28;19915;-62
2023/06/24 12:05:59;;;;;;;;;;;37.30;36.90;;;;;;5100834;28;19908;-61
2023/06/24 12:08:24;;;;;;;;;;;37.80;37.10;;;;;;5101063;28;19991;-61
2023/06/24 12:10:51;;;;;;;;;;;36.90;33.60;;;;;;5101571;28;19908;-61
2023/06/24 12:13:16;;;;;;;;;;;36.70;35.40;;;;;;5100785;28;20359;-61
2023/06/24 12:15:42;;;;;;;;;;;36.70;35.90;;;;;;5100686;28;19948;-61
2023/06/24 12:18:08;;;;;;;;;;;36.50;35.70;;;;;;5100579;28;19908;-61
2023/06/24 12:20:36;;;;;;;;;;;36.20;35.30;;;;;;5100795;28;19993;-61
2023/06/24 12:23:02;;;;;;;;;;;36.40;35.10;;;;;;5100434;28;20419;-61
2023/06/24 12:25:27;;;;;;;;;;;36.30;35.40;;;;;;5100688;28;19908;-61
2023/06/24 12:27:53;;;;;;;;;;;36.40;35.30;;;;;;5100721;28;20393;-61
2023/06/24 12:30:20;;;;;;;;;;;36.60;36.20;;;;;;5100463;28;19912;-61
2023/06/24 12:32:45;;;;;;;;;;;36.80;34.20;;;;;;5100428;28;20045;-61
2023/06/24 12:35:12;;;;;;;;;;;37.20;35.70;;;;;;5100356;28;19930;-61
2023/06/24 12:37:38;;;;;;;;;;;37.20;35.00;;;;;;5100327;28;20115;-61
2023/06/24 12:40:04;;;;;;;;;;;37.20;34.00;;;;;;5100229;28;20030;-61
2023/06/24 12:42:29;;;;;;;;;;;37.40;35.60;;;;;;5100140;28;19915;-61
2023/06/24 12:44:55;;;;;;;;;;;37.40;35.50;;;;;;5100339;28;19919;-61
2023/06/24 12:47:21;;;;;;;;;;;37.60;34.30;;;;;;5100188;28;19912;-61
2023/06/24 12:49:46;;;;;;;;;;;37.80;36.00;;;;;;5100122;28;19950;-61
2023/06/24 12:52:13;;;;;;;;;;;37.20;34.40;;;;;;5100351;28;19908;-61
2023/06/24 12:54:38;;;;;;;;;;;36.80;34.80;;;;;;5099970;28;20278;-61
2023/06/24 12:57:04;;;;;;;;;;;36.20;34.30;;;;;;5100184;28;19995;-61
2023/06/24 12:59:30;;;;;;;;;;;36.20;34.60;;;;;;5099484;28;20427;-61
2023/06/24 13:01:55;;;;;;;;;;;36.10;35.30;;;;;;5099916;28;19912;-61
2023/06/24 13:04:22;;;;;;;;;;;36.60;35.70;;;;;;5100355;28;20263;-61
2023/06/24 13:06:49;;;;;;;;;;;36.80;35.50;;;;;;5099901;28;19965;-61
2023/06/24 13:09:14;;;;;;;;;;;36.50;34.30;;;;;;5099468;28;19912;-61
2023/06/24 13:11:40;;;;;;;;;;;36.10;34.90;;;;;;5099902;28;19915;-61
2023/06/24 13:14:06;;;;;;;;;;;36.00;35.30;;;;;;5099671;28;19912;-61
2023/06/24 13:16:32;;;;;;;;;;;36.30;35.70;;;;;;5099857;28;19931;-61
2023/06/24 13:18:58;;;;;;;;;;;36.30;35.40;;;;;;5100111;28;19990;-61
2023/06/24 13:21:24;;;;;;;;;;;36.00;35.80;;;;;;5099685;28;19998;-61
2023/06/24 13:23:49;;;;;;;;;;;35.90;35.70;;;;;;5099579;28;19930;-61
2023/06/24 13:26:15;;;;;;;;;;;35.50;36.10;;;;;;5099442;28;19938;-61
2023/06/24 13:28:42;;;;;;;;;;;35.20;36.30;;;;;;5099548;28;19908;-61
2023/06/24 13:31:07;;;;;;;;;;;34.80;36.20;;;;;;5099516;28;19909;-61
2023/06/24 13:33:33;;;;;;;;;;;35.00;36.60;;;;;;5099716;28;19908;-61
2023/06/24 13:35:58;;;;;;;;;;;35.00;36.90;;;;;;5099720;28;19915;-61
2023/06/24 13:38:24;;;;;;;;;;;35.20;36.50;;;;;;5099128;28;19958;-61
2023/06/24 13:40:49;;;;;;;;;;;35.50;37.30;;;;;;5099110;28;20009;-61
2023/06/24 13:43:15;;;;;;;;;;;35.80;36.50;;;;;;5099309;28;19935;-61
2023/06/24 13:45:41;;;;;;;;;;;35.90;35.40;;;;;;5099535;28;19915;-61
2023/06/24 13:48:06;;;;;;;;;;;35.60;35.20;;;;;;5098939;28;19916;-61
2023/06/24 13:50:32;;;;;;;;;;;35.20;35.00;;;;;;5099217;28;19908;-61
2023/06/24 13:52:57;;;;;;;;;;;34.90;34.90;;;;;;5099132;28;19970;-61
2023/06/24 13:55:23;;;;;;;;;;;34.30;35.50;;;;;;5098831;28;19908;-60
2023/06/24 13:57:49;;;;;;;;;;;33.30;34.60;;;;;;5099063;28;19912;-60
2023/06/24 14:00:15;;;;;;;;;;;33.00;36.30;;;;;;5098792;28;19908;-60
2023/06/24 14:02:41;;;;;;;;;;;33.20;37.50;;;;;;5098568;28;19909;-60
2023/06/24 14:05:07;;;;;;;;;;;33.10;35.40;;;;;;5099262;28;19910;-60
2023/06/24 14:07:33;;;;;;;;;;;32.80;36.50;;;;;;5098635;28;20424;-60
2023/06/24 14:09:58;;;;;;;;;;;32.30;36.30;;;;;;5098029;28;19915;-60
2023/06/24 14:12:24;;;;;;;;;;;32.00;36.60;;;;;;5098769;28;20279;-60